Pulaski, Pennsylvania
Current Conditions -  °F | °C
As of 10:51 PM on Tuesday 25 Nov 2014 (Local Time) from KYNG Reporting Station
Overcast Overcast  
Wind Chill: 24°   Ceiling: 2800
Heat Index: 32°   Visibility: 10mi
Dew Point: 26°   Wind: 9mph
Humidity: 79%   Direction: 330°NNW
Pressure: 30.18"   Gusts: NA
Location:  41.11°N, 80.43°W
Report Text: KYNG 260351Z 33008KT 10SM FEW018 OVC028 00/M03 A3018 RMK AO2 SLP230 T00001033
Loading
Personal Weather Stations






























Interactive Weather Map New forecast layout! Learn more

10-Day Weather Forecast

Advertisements
Track Severe Weather on mobile